createdAt,value
2023-11-13T00:00:48.390Z,12.83
2023-11-13T00:05:00.885Z,12.85
2023-11-13T00:09:13.370Z,12.72
2023-11-13T00:13:25.972Z,12.79
2023-11-13T00:17:38.463Z,12.69
2023-11-13T00:21:51.028Z,12.79
2023-11-13T00:26:03.479Z,12.59
2023-11-13T00:30:17.835Z,12.65
2023-11-13T00:34:30.344Z,12.55
2023-11-13T00:38:42.692Z,12.45
2023-11-13T00:42:55.247Z,12.39
2023-11-13T00:47:07.812Z,12.42
2023-11-13T00:51:20.162Z,12.34
2023-11-13T00:55:32.593Z,12.31
2023-11-13T00:59:45.109Z,12.38
2023-11-13T01:03:57.647Z,12.36
2023-11-13T01:08:11.168Z,12.24
2023-11-13T01:12:24.174Z,12.23
2023-11-13T01:16:36.699Z,12.25
2023-11-13T01:20:49.399Z,12.17
2023-11-13T01:25:02.437Z,12.05
2023-11-13T01:29:15.740Z,12.04
2023-11-13T01:33:28.208Z,12.05
2023-11-13T01:37:40.742Z,11.99
2023-11-13T01:41:53.138Z,11.95
2023-11-13T01:46:12.295Z,11.96
2023-11-13T01:50:24.830Z,11.97
2023-11-13T01:54:38.484Z,11.96
2023-11-13T01:58:50.977Z,11.95
2023-11-13T02:03:06.767Z,11.98
2023-11-13T02:07:19.441Z,11.85
2023-11-13T02:11:32.096Z,11.79
2023-11-13T02:15:44.609Z,11.70
2023-11-13T02:19:57.173Z,11.71
2023-11-13T02:24:11.338Z,11.46
2023-11-13T02:28:24.382Z,11.41
2023-11-13T02:32:36.863Z,11.41
2023-11-13T02:36:51.784Z,11.39
2023-11-13T02:41:04.565Z,11.50
2023-11-13T02:45:17.066Z,11.51
2023-11-13T02:49:29.457Z,11.49
2023-11-13T02:53:41.895Z,11.53
2023-11-13T02:57:54.367Z,11.59
2023-11-13T03:02:06.759Z,11.51
2023-11-13T03:06:23.558Z,11.72
2023-11-13T03:10:35.957Z,11.53
2023-11-13T03:14:48.448Z,11.39
2023-11-13T03:19:00.814Z,11.51
2023-11-13T03:23:13.916Z,11.56
2023-11-13T03:27:26.327Z,11.33
2023-11-13T03:31:38.855Z,11.34
2023-11-13T03:35:51.323Z,11.22
2023-11-13T03:40:04.044Z,11.15
2023-11-13T03:44:18.128Z,11.30
2023-11-13T03:48:30.517Z,11.39
2023-11-13T03:52:42.947Z,11.34
2023-11-13T03:56:55.381Z,11.36
2023-11-13T04:01:09.967Z,11.27
2023-11-13T04:05:22.444Z,11.24
2023-11-13T04:09:36.983Z,11.31
2023-11-13T04:13:49.433Z,11.28
2023-11-13T04:18:01.925Z,11.27
2023-11-13T04:22:14.422Z,11.34
2023-11-13T04:26:27.670Z,11.24
2023-11-13T04:30:40.048Z,11.10
2023-11-13T04:34:52.921Z,11.03
2023-11-13T04:39:10.824Z,11.01
2023-11-13T04:43:23.366Z,11.07
2023-11-13T04:47:35.768Z,11.01
2023-11-13T04:51:48.173Z,11.03
2023-11-13T04:56:00.758Z,10.89
2023-11-13T05:00:13.983Z,10.63
2023-11-13T05:04:28.121Z,10.57
2023-11-13T05:08:40.552Z,10.65
2023-11-13T05:12:53.206Z,10.54
2023-11-13T05:17:05.641Z,10.68
2023-11-13T05:21:18.376Z,10.47
2023-11-13T05:25:30.717Z,10.46
2023-11-13T05:29:43.166Z,10.40
2023-11-13T05:33:55.863Z,10.59
2023-11-13T05:38:08.187Z,10.74
2023-11-13T05:42:24.607Z,10.90
2023-11-13T05:46:37.078Z,10.98
2023-11-13T05:50:50.078Z,11.13
2023-11-13T05:55:02.696Z,11.31
2023-11-13T05:59:16.322Z,11.58
2023-11-13T06:03:28.723Z,11.58
2023-11-13T06:07:41.353Z,11.59
2023-11-13T06:11:54.343Z,11.67
2023-11-13T06:16:07.823Z,11.78
2023-11-13T06:20:20.630Z,11.95
2023-11-13T06:24:32.987Z,12.10
2023-11-13T06:28:45.457Z,12.18
2023-11-13T06:32:58.068Z,12.16
2023-11-13T06:37:10.585Z,12.20
2023-11-13T06:41:23.133Z,12.12
2023-11-13T06:45:37.111Z,12.07
2023-11-13T06:49:49.489Z,12.06
2023-11-13T06:54:02.108Z,12.00
2023-11-13T06:58:14.448Z,12.17
2023-11-13T07:02:29.382Z,12.13
2023-11-13T07:06:43.072Z,12.23
2023-11-13T07:10:55.699Z,12.42
2023-11-13T07:15:08.573Z,12.71
2023-11-13T07:19:21.607Z,12.93
2023-11-13T07:23:33.956Z,12.98
2023-11-13T07:27:46.891Z,12.96
2023-11-13T07:31:59.454Z,13.19
2023-11-13T07:36:12.692Z,13.23
2023-11-13T07:40:27.265Z,13.26
2023-11-13T07:44:47.191Z,13.52
2023-11-13T07:48:59.359Z,13.82
2023-11-13T07:53:11.881Z,14.01
2023-11-13T07:57:24.757Z,13.93
2023-11-13T08:01:39.447Z,14.13
2023-11-13T08:05:52.258Z,13.96
2023-11-13T08:10:10.146Z,13.99
2023-11-13T08:14:24.573Z,14.08
2023-11-13T08:18:37.027Z,13.98
2023-11-13T08:22:49.791Z,14.04
2023-11-13T08:27:05.313Z,14.36
2023-11-13T08:31:18.126Z,14.33
2023-11-13T08:35:35.505Z,14.20
2023-11-13T08:39:49.441Z,14.39
2023-11-13T08:44:02.500Z,14.48
2023-11-13T08:48:15.337Z,14.58
2023-11-13T08:52:27.970Z,14.64
2023-11-13T08:56:42.658Z,14.40
2023-11-13T09:00:55.142Z,14.59
2023-11-13T09:05:08.284Z,14.63
2023-11-13T09:09:22.922Z,14.94
2023-11-13T09:13:35.587Z,15.23
2023-11-13T09:17:49.914Z,15.66
2023-11-13T09:22:06.420Z,15.69
2023-11-13T09:26:19.463Z,15.72
2023-11-13T09:30:33.706Z,16.36
2023-11-13T09:34:49.224Z,16.57
2023-11-13T09:39:05.113Z,16.39
2023-11-13T09:43:26.269Z,16.24
2023-11-13T09:47:44.316Z,16.54
2023-11-13T09:52:00.641Z,16.74
2023-11-13T09:56:16.599Z,16.80
2023-11-13T10:00:33.784Z,16.91
2023-11-13T10:04:46.870Z,16.83
2023-11-13T10:08:59.370Z,17.17
2023-11-13T10:13:14.095Z,17.64
2023-11-13T10:17:26.910Z,17.73
2023-11-13T10:21:39.357Z,17.71
2023-11-13T10:25:57.923Z,17.82
2023-11-13T10:30:11.689Z,18.05
2023-11-13T10:34:24.929Z,17.93
2023-11-13T10:38:52.937Z,17.80
2023-11-13T10:43:09.050Z,17.64
2023-11-13T10:47:24.996Z,17.85
2023-11-13T10:51:38.049Z,17.72
2023-11-13T10:55:52.098Z,18.26
2023-11-13T11:00:06.940Z,18.54
2023-11-13T11:04:23.388Z,18.05
2023-11-13T11:08:37.004Z,18.26
2023-11-13T11:13:07.331Z,18.28
2023-11-13T11:17:34.827Z,18.29
2023-11-13T11:22:06.482Z,18.48
2023-11-13T11:26:21.465Z,18.85
2023-11-13T11:30:37.013Z,18.59
2023-11-13T11:35:04.240Z,18.95
2023-11-13T11:39:23.465Z,19.00
2023-11-13T11:43:40.130Z,18.47
2023-11-13T11:47:56.295Z,18.59
2023-11-13T11:52:10.490Z,19.16
2023-11-13T11:56:24.992Z,19.70
2023-11-13T12:00:37.387Z,21.40
2023-11-13T12:04:49.789Z,21.80
2023-11-13T12:09:05.887Z,21.75
2023-11-13T12:13:20.834Z,20.42
2023-11-13T12:17:38.759Z,18.69
2023-11-13T12:21:51.566Z,18.56
2023-11-13T12:26:06.391Z,18.11
2023-11-13T12:30:20.958Z,18.36
2023-11-13T12:34:33.494Z,18.44
2023-11-13T12:38:48.596Z,18.65
2023-11-13T12:43:04.178Z,18.47
2023-11-13T12:47:18.466Z,18.10
2023-11-13T12:51:36.298Z,18.08
2023-11-13T12:55:52.427Z,17.63
2023-11-13T13:00:06.578Z,17.74
2023-11-13T13:04:21.956Z,17.71
2023-11-13T13:08:34.875Z,17.96
2023-11-13T13:12:50.200Z,18.04
2023-11-13T13:17:08.632Z,17.98
2023-11-13T13:21:23.484Z,17.97
2023-11-13T13:25:37.704Z,17.70
2023-11-13T13:29:51.126Z,17.70
2023-11-13T13:34:03.892Z,17.65
2023-11-13T13:38:17.796Z,17.64
2023-11-13T13:42:30.484Z,17.65
2023-11-13T13:46:43.851Z,17.63
2023-11-13T13:50:58.545Z,17.62
2023-11-13T13:55:14.367Z,17.61
2023-11-13T13:59:26.814Z,17.54
2023-11-13T14:03:42.003Z,17.54
2023-11-13T14:07:56.069Z,17.49
2023-11-13T14:12:15.236Z,17.37
2023-11-13T14:16:32.155Z,17.32
2023-11-13T14:20:48.742Z,17.31
2023-11-13T14:25:01.901Z,17.21
2023-11-13T14:29:18.152Z,17.22
2023-11-13T14:33:30.715Z,17.13
2023-11-13T14:37:43.461Z,17.06
2023-11-13T14:41:56.511Z,16.90
2023-11-13T14:46:09.413Z,16.74
2023-11-13T14:50:24.697Z,16.59
2023-11-13T14:54:37.966Z,16.51
2023-11-13T14:58:50.471Z,16.31
2023-11-13T15:03:03.932Z,16.09
2023-11-13T15:07:19.819Z,15.90
2023-11-13T15:11:32.471Z,15.68
2023-11-13T15:15:45.319Z,15.58
2023-11-13T15:19:57.845Z,15.38
2023-11-13T15:24:10.769Z,15.18
2023-11-13T15:28:24.128Z,15.26
2023-11-13T15:32:37.328Z,15.19
2023-11-13T15:36:49.859Z,14.98
2023-11-13T15:41:02.450Z,14.76
2023-11-13T15:45:15.024Z,14.62
2023-11-13T15:49:28.885Z,14.48
2023-11-13T15:53:42.032Z,14.39
2023-11-13T15:57:54.427Z,14.34
2023-11-13T16:02:07.417Z,14.24
2023-11-13T16:06:19.828Z,14.23
2023-11-13T16:10:32.311Z,14.29
2023-11-13T16:14:45.774Z,14.33
2023-11-13T16:18:58.183Z,14.26
2023-11-13T16:23:10.613Z,14.20
2023-11-13T16:27:24.101Z,13.95
2023-11-13T16:31:37.144Z,13.92
2023-11-13T16:35:49.658Z,13.72
2023-11-13T16:40:03.922Z,13.64
2023-11-13T16:44:16.636Z,13.56
2023-11-13T16:48:29.206Z,13.48
2023-11-13T16:52:42.133Z,13.43
2023-11-13T16:56:54.748Z,13.40
2023-11-13T17:01:08.531Z,13.36
2023-11-13T17:05:24.301Z,13.41
2023-11-13T17:09:36.837Z,13.36
2023-11-13T17:13:51.490Z,13.22
2023-11-13T17:18:06.397Z,13.15
2023-11-13T17:22:18.842Z,13.05
2023-11-13T17:26:31.219Z,13.06
2023-11-13T17:30:44.548Z,13.13
2023-11-13T17:34:57.123Z,13.01
2023-11-13T17:39:10.830Z,12.87
2023-11-13T17:43:23.294Z,12.95
2023-11-13T17:47:35.928Z,12.97
2023-11-13T17:51:49.306Z,12.73
2023-11-13T17:56:01.761Z,12.57
2023-11-13T18:00:16.095Z,12.52
2023-11-13T18:04:28.911Z,12.55
2023-11-13T18:08:41.405Z,12.35
2023-11-13T18:12:56.427Z,12.37
2023-11-13T18:17:08.936Z,12.24
2023-11-13T18:21:21.365Z,12.21
2023-11-13T18:25:34.578Z,12.07
2023-11-13T18:29:46.961Z,11.97
2023-11-13T18:33:59.906Z,11.98
2023-11-13T18:38:12.362Z,11.85
2023-11-13T18:42:25.464Z,11.85
2023-11-13T18:46:41.228Z,11.73
2023-11-13T18:50:53.782Z,11.73
2023-11-13T18:55:08.307Z,11.60
2023-11-13T18:59:21.296Z,11.66
2023-11-13T19:03:33.838Z,11.78
2023-11-13T19:07:46.386Z,11.89
2023-11-13T19:11:59.049Z,11.94
2023-11-13T19:16:11.559Z,11.84
2023-11-13T19:20:27.559Z,11.67
2023-11-13T19:24:40.492Z,11.67
2023-11-13T19:28:53.116Z,11.69
2023-11-13T19:33:08.994Z,11.69
2023-11-13T19:37:21.472Z,11.58
2023-11-13T19:41:34.119Z,11.54
2023-11-13T19:45:47.616Z,11.72
2023-11-13T19:50:00.945Z,11.55
2023-11-13T19:54:13.471Z,11.55
2023-11-13T19:58:25.825Z,11.64
2023-11-13T20:02:41.341Z,11.51
2023-11-13T20:06:53.878Z,11.42
2023-11-13T20:11:08.000Z,11.41
2023-11-13T20:15:20.708Z,11.38
2023-11-13T20:19:33.921Z,11.37
2023-11-13T20:23:46.375Z,11.25
2023-11-13T20:27:58.860Z,11.37
2023-11-13T20:32:11.261Z,11.60
2023-11-13T20:36:23.820Z,11.52
2023-11-13T20:40:37.666Z,11.47
2023-11-13T20:44:50.102Z,11.38
2023-11-13T20:49:02.675Z,11.36
2023-11-13T20:53:16.185Z,11.27
2023-11-13T20:57:31.840Z,11.20
2023-11-13T21:01:44.411Z,11.23
2023-11-13T21:06:06.712Z,11.18
2023-11-13T21:10:22.003Z,11.08
2023-11-13T21:14:35.003Z,11.07
2023-11-13T21:18:47.468Z,11.11
2023-11-13T21:22:59.940Z,11.04
2023-11-13T21:27:12.400Z,11.07
2023-11-13T21:31:24.866Z,10.99
2023-11-13T21:35:37.320Z,11.14
2023-11-13T21:39:50.582Z,11.01
2023-11-13T21:44:03.128Z,11.12
2023-11-13T21:48:15.538Z,11.04
2023-11-13T21:52:28.000Z,10.83
2023-11-13T21:56:40.620Z,10.99
2023-11-13T22:00:53.016Z,10.93
2023-11-13T22:05:08.753Z,11.14
2023-11-13T22:09:22.424Z,11.08
2023-11-13T22:13:37.431Z,10.97
2023-11-13T22:17:50.760Z,10.83
2023-11-13T22:22:03.166Z,10.77
2023-11-13T22:26:15.677Z,10.75
2023-11-13T22:30:28.239Z,10.87
2023-11-13T22:34:40.863Z,10.82
2023-11-13T22:38:53.297Z,10.92
2023-11-13T22:43:06.980Z,11.09
2023-11-13T22:47:20.400Z,11.07
2023-11-13T22:51:33.025Z,10.99
2023-11-13T22:55:45.588Z,10.92
2023-11-13T22:59:58.119Z,10.80
2023-11-13T23:04:10.500Z,10.80
2023-11-13T23:08:23.435Z,10.95
2023-11-13T23:12:37.211Z,10.97
2023-11-13T23:16:49.620Z,10.96
2023-11-13T23:21:05.087Z,10.98
2023-11-13T23:25:19.826Z,10.96
2023-11-13T23:29:33.078Z,11.02
2023-11-13T23:33:45.919Z,11.05
2023-11-13T23:37:58.471Z,11.06
2023-11-13T23:42:11.619Z,11.09
2023-11-13T23:46:24.220Z,11.09
2023-11-13T23:50:36.758Z,11.12
2023-11-13T23:54:49.094Z,11.04
2023-11-13T23:59:01.547Z,10.98
